Time;durP1;ratioP1;P1;durP2;ratioP2;P2;SDS_P1;SDS_P2;PMS_P1;PMS_P2;Temp;Humidity;BMP_temperature;BMP_pressure;BME280_temperature;BME280_humidity;BME280_pressure;Samples;Min_cycle;Max_cycle;Signal;HPM_P1;HPM_P2
2023/12/20 00:00:58;;;;;;;;;7.00;7.00;;;;;;;;5063860;28;45418;-76
2023/12/20 00:03:23;;;;;;;;;10.00;10.00;;;;;;;;5063240;28;45918;-76
2023/12/20 00:05:49;;;;;;;;;10.00;9.67;;;;;;;;5061777;28;45161;-76
2023/12/20 00:08:14;;;;;;;;;13.00;13.00;;;;;;;;5045282;28;45297;-76
2023/12/20 00:10:39;;;;;;;;;10.67;10.67;;;;;;;;5060680;28;46040;-76
2023/12/20 00:13:04;;;;;;;;;7.33;7.33;;;;;;;;5062887;28;45256;-76
2023/12/20 00:15:30;;;;;;;;;12.00;11.00;;;;;;;;5044950;28;45269;-76
2023/12/20 00:17:55;;;;;;;;;8.67;8.67;;;;;;;;5061165;28;45292;-75
2023/12/20 00:20:20;;;;;;;;;7.00;7.00;;;;;;;;5062522;28;45262;-76
2023/12/20 00:22:46;;;;;;;;;7.67;7.00;;;;;;;;5061330;28;47997;-76
2023/12/20 00:25:11;;;;;;;;;4.00;4.00;;;;;;;;5062877;28;45262;-76
2023/12/20 00:27:36;;;;;;;;;5.00;4.00;;;;;;;;5062083;28;45386;-76
2023/12/20 00:30:01;;;;;;;;;4.00;4.00;;;;;;;;5062168;28;46418;-75
2023/12/20 00:32:26;;;;;;;;;4.00;4.00;;;;;;;;5061588;28;47100;-76
2023/12/20 00:34:52;;;;;;;;;3.00;2.67;;;;;;;;5062644;28;45356;-76
2023/12/20 00:37:17;;;;;;;;;3.00;3.00;;;;;;;;5062318;28;45307;-75
2023/12/20 00:39:42;;;;;;;;;2.33;2.33;;;;;;;;5061607;28;47033;-76
2023/12/20 00:42:07;;;;;;;;;2.00;2.00;;;;;;;;5062422;28;45393;-76
2023/12/20 00:44:32;;;;;;;;;4.00;2.00;;;;;;;;5062969;28;45298;-76
2023/12/20 00:46:57;;;;;;;;;1.67;1.00;;;;;;;;5063427;28;45586;-76
2023/12/20 00:49:23;;;;;;;;;5.67;4.33;;;;;;;;5063113;28;45291;-76
2023/12/20 00:51:50;;;;;;;;;3.00;3.00;;;;;;;;5062264;28;45832;-76
2023/12/20 00:54:15;;;;;;;;;4.33;3.67;;;;;;;;5061278;28;45494;-76
2023/12/20 00:56:40;;;;;;;;;2.00;2.00;;;;;;;;5061792;28;45302;-77
2023/12/20 00:59:05;;;;;;;;;3.67;2.33;;;;;;;;5063080;28;45471;-77
2023/12/20 01:01:32;;;;;;;;;4.00;4.00;;;;;;;;5043450;28;47966;-76
2023/12/20 01:03:58;;;;;;;;;1.00;1.00;;;;;;;;5062458;28;45377;-75
2023/12/20 01:06:23;;;;;;;;;2.00;2.00;;;;;;;;5060296;28;45423;-76
2023/12/20 01:08:48;;;;;;;;;3.33;1.67;;;;;;;;5061789;28;45273;-76
2023/12/20 01:11:13;;;;;;;;;3.00;3.00;;;;;;;;5060186;28;47654;-76
2023/12/20 01:13:38;;;;;;;;;3.00;3.00;;;;;;;;5059630;28;45989;-76
2023/12/20 01:16:04;;;;;;;;;1.67;1.67;;;;;;;;5061832;28;45414;-76
2023/12/20 01:18:29;;;;;;;;;2.00;2.00;;;;;;;;5061013;28;45145;-76
2023/12/20 01:20:55;;;;;;;;;1.67;1.67;;;;;;;;5058913;28;47907;-75
2023/12/20 01:23:20;;;;;;;;;3.67;3.67;;;;;;;;5059232;28;45382;-76
2023/12/20 01:25:45;;;;;;;;;3.00;3.00;;;;;;;;5061038;28;45334;-76
2023/12/20 01:28:10;;;;;;;;;4.00;4.00;;;;;;;;5059499;28;46114;-76
2023/12/20 01:30:35;;;;;;;;;4.67;4.67;;;;;;;;5060843;28;45980;-76
2023/12/20 01:33:01;;;;;;;;;3.00;1.67;;;;;;;;5059511;28;45902;-75
2023/12/20 01:35:26;;;;;;;;;3.00;2.00;;;;;;;;5063107;28;46017;-78
2023/12/20 01:37:51;;;;;;;;;4.00;3.00;;;;;;;;5060787;28;45415;-76
2023/12/20 01:40:16;;;;;;;;;3.00;3.00;;;;;;;;5059352;28;48567;-76
2023/12/20 01:42:42;;;;;;;;;2.33;2.33;;;;;;;;5060452;28;45268;-76
2023/12/20 01:45:08;;;;;;;;;6.00;3.67;;;;;;;;5059207;28;45339;-75
2023/12/20 01:47:33;;;;;;;;;5.33;3.67;;;;;;;;5040946;28;47366;-76
2023/12/20 01:49:59;;;;;;;;;2.00;2.00;;;;;;;;5060022;28;46148;-75
2023/12/20 01:52:25;;;;;;;;;2.00;2.00;;;;;;;;5060155;28;45379;-76
2023/12/20 01:54:50;;;;;;;;;2.33;2.33;;;;;;;;5059746;28;45342;-76
2023/12/20 01:57:16;;;;;;;;;2.00;2.00;;;;;;;;5058160;28;45307;-76
2023/12/20 01:59:41;;;;;;;;;2.00;2.00;;;;;;;;5060089;28;46034;-76
2023/12/20 02:02:07;;;;;;;;;2.67;1.33;;;;;;;;5058755;28;45350;-75
2023/12/20 02:04:32;;;;;;;;;2.00;1.00;;;;;;;;5042028;28;45375;-76
2023/12/20 02:06:58;;;;;;;;;2.33;1.00;;;;;;;;5059755;28;45544;-75
2023/12/20 02:09:23;;;;;;;;;2.67;2.00;;;;;;;;5059614;28;45553;-76
2023/12/20 02:11:49;;;;;;;;;3.67;3.33;;;;;;;;5041883;28;46049;-75
2023/12/20 02:14:14;;;;;;;;;2.00;2.00;;;;;;;;5041739;28;45273;-75
2023/12/20 02:16:39;;;;;;;;;1.00;1.00;;;;;;;;5059407;28;45432;-75
2023/12/20 02:19:07;;;;;;;;;3.00;3.00;;;;;;;;5059352;28;45414;-77
2023/12/20 02:21:34;;;;;;;;;1.00;1.00;;;;;;;;5059653;28;45333;-76
2023/12/20 02:23:59;;;;;;;;;1.33;1.00;;;;;;;;5058171;28;45322;-75
2023/12/20 02:26:24;;;;;;;;;2.67;2.67;;;;;;;;5058131;28;47275;-75
2023/12/20 02:28:50;;;;;;;;;3.00;1.33;;;;;;;;5057985;28;47040;-76
2023/12/20 02:31:15;;;;;;;;;0.00;0.00;;;;;;;;5041192;28;45649;-76
2023/12/20 02:33:42;;;;;;;;;1.67;1.00;;;;;;;;5058210;28;45348;-76
2023/12/20 02:36:07;;;;;;;;;1.00;1.00;;;;;;;;5059243;28;45315;-76
2023/12/20 02:38:32;;;;;;;;;2.00;2.00;;;;;;;;5058974;28;46432;-77
2023/12/20 02:40:57;;;;;;;;;1.00;1.00;;;;;;;;5057921;28;45522;-76
2023/12/20 02:43:22;;;;;;;;;1.00;1.00;;;;;;;;5059334;28;45293;-76
2023/12/20 02:45:48;;;;;;;;;2.00;2.00;;;;;;;;5059372;28;45396;-75
2023/12/20 02:48:13;;;;;;;;;4.00;3.00;;;;;;;;5057953;28;47339;-75
2023/12/20 02:50:38;;;;;;;;;3.00;3.00;;;;;;;;5059093;28;45367;-76
2023/12/20 02:53:03;;;;;;;;;2.00;2.00;;;;;;;;5058063;28;45342;-75
2023/12/20 02:55:28;;;;;;;;;3.00;3.00;;;;;;;;5058583;28;45325;-76
2023/12/20 02:57:54;;;;;;;;;3.00;3.00;;;;;;;;5058666;28;45384;-75
2023/12/20 03:00:19;;;;;;;;;5.00;3.33;;;;;;;;5061915;28;45261;-76
2023/12/20 03:02:44;;;;;;;;;1.33;1.00;;;;;;;;5062767;28;45213;-76
2023/12/20 03:05:09;;;;;;;;;2.00;1.00;;;;;;;;5060816;28;45479;-75
2023/12/20 03:07:36;;;;;;;;;2.67;2.67;;;;;;;;5062200;28;45370;-76
2023/12/20 03:10:01;;;;;;;;;2.33;2.00;;;;;;;;5062279;28;45352;-76
2023/12/20 03:12:26;;;;;;;;;2.00;2.00;;;;;;;;5062769;28;45323;-76
2023/12/20 03:14:51;;;;;;;;;3.00;2.00;;;;;;;;5062583;28;45475;-76
2023/12/20 03:17:16;;;;;;;;;4.00;3.00;;;;;;;;5044198;28;47381;-76
2023/12/20 03:19:42;;;;;;;;;2.00;2.00;;;;;;;;5060789;28;45921;-76
2023/12/20 03:22:07;;;;;;;;;3.00;3.00;;;;;;;;5062686;28;45569;-76
2023/12/20 03:24:32;;;;;;;;;3.00;3.00;;;;;;;;5062054;28;45561;-76
2023/12/20 03:26:57;;;;;;;;;4.67;4.00;;;;;;;;5062166;28;45550;-75
2023/12/20 03:29:22;;;;;;;;;2.33;1.33;;;;;;;;5062272;28;45231;-76
2023/12/20 03:31:47;;;;;;;;;1.00;1.00;;;;;;;;5062512;28;45410;-76
2023/12/20 03:34:13;;;;;;;;;3.00;1.67;;;;;;;;5062067;28;45513;-75
2023/12/20 03:36:38;;;;;;;;;3.33;3.00;;;;;;;;5062104;28;45414;-76
2023/12/20 03:39:03;;;;;;;;;4.33;3.00;;;;;;;;5060198;28;45332;-76
2023/12/20 03:41:29;;;;;;;;;4.00;4.00;;;;;;;;5062289;28;45469;-76
2023/12/20 03:43:54;;;;;;;;;5.67;3.00;;;;;;;;5060629;28;46330;-76
2023/12/20 03:46:19;;;;;;;;;3.00;2.67;;;;;;;;5061991;28;46265;-76
2023/12/20 03:48:44;;;;;;;;;2.33;2.33;;;;;;;;5060374;28;45391;-76
2023/12/20 03:51:09;;;;;;;;;3.33;3.33;;;;;;;;5061913;28;45351;-76
2023/12/20 03:53:35;;;;;;;;;3.00;3.00;;;;;;;;5061703;28;45453;-75
2023/12/20 03:56:00;;;;;;;;;3.00;3.00;;;;;;;;5060240;28;46507;-75
2023/12/20 03:58:25;;;;;;;;;4.00;4.00;;;;;;;;5061377;28;45360;-76
2023/12/20 04:00:50;;;;;;;;;3.00;2.67;;;;;;;;5062034;28;45287;-76
2023/12/20 04:03:15;;;;;;;;;5.00;2.33;;;;;;;;5061624;28;45469;-76
2023/12/20 04:05:41;;;;;;;;;3.00;3.00;;;;;;;;5061586;28;46204;-76
2023/12/20 04:08:07;;;;;;;;;3.33;3.00;;;;;;;;5061502;28;45279;-76
2023/12/20 04:10:32;;;;;;;;;3.33;3.33;;;;;;;;5060537;28;45272;-76
2023/12/20 04:12:57;;;;;;;;;4.00;4.00;;;;;;;;5061537;28;45263;-76
2023/12/20 04:15:22;;;;;;;;;3.00;2.67;;;;;;;;5043248;28;47419;-76
2023/12/20 04:17:47;;;;;;;;;3.67;3.67;;;;;;;;5061326;28;45260;-76
2023/12/20 04:20:13;;;;;;;;;3.00;3.00;;;;;;;;5061550;28;45482;-75
2023/12/20 04:22:38;;;;;;;;;2.00;2.00;;;;;;;;5061222;28;45287;-76
2023/12/20 04:25:03;;;;;;;;;2.67;2.00;;;;;;;;5059780;28;48206;-76
2023/12/20 04:27:28;;;;;;;;;2.00;2.00;;;;;;;;5059759;28;45211;-75
2023/12/20 04:29:53;;;;;;;;;2.00;2.00;;;;;;;;5061299;28;45228;-76
2023/12/20 04:32:19;;;;;;;;;2.33;1.33;;;;;;;;5059896;28;46220;-76
2023/12/20 04:34:44;;;;;;;;;3.33;3.00;;;;;;;;5061166;28;46128;-75
2023/12/20 04:37:09;;;;;;;;;2.33;2.00;;;;;;;;5061099;28;45272;-75
2023/12/20 04:39:34;;;;;;;;;4.67;3.67;;;;;;;;5061007;28;45260;-76
2023/12/20 04:41:59;;;;;;;;;3.00;2.00;;;;;;;;5042967;28;47047;-75
2023/12/20 04:44:24;;;;;;;;;3.00;3.00;;;;;;;;5059753;28;46171;-76
2023/12/20 04:46:50;;;;;;;;;3.00;2.33;;;;;;;;5060883;28;45293;-76
2023/12/20 04:49:15;;;;;;;;;6.00;4.33;;;;;;;;5060940;28;45214;-76
2023/12/20 04:51:40;;;;;;;;;3.00;3.00;;;;;;;;5059362;28;46230;-75
2023/12/20 04:54:05;;;;;;;;;4.33;4.00;;;;;;;;5060206;28;46149;-76
2023/12/20 04:56:30;;;;;;;;;5.00;5.00;;;;;;;;5060548;28;45325;-76
2023/12/20 04:58:55;;;;;;;;;9.67;9.67;;;;;;;;5042538;28;45437;-76
2023/12/20 05:01:21;;;;;;;;;12.00;11.67;;;;;;;;5060767;28;45205;-76
2023/12/20 05:03:46;;;;;;;;;10.33;8.00;;;;;;;;5060593;28;45218;-76
2023/12/20 05:06:11;;;;;;;;;10.33;10.00;;;;;;;;5042284;28;45359;-76
2023/12/20 05:08:37;;;;;;;;;11.33;11.33;;;;;;;;5042456;28;45360;-76
2023/12/20 05:11:02;;;;;;;;;18.00;15.00;;;;;;;;5060546;28;45257;-76
2023/12/20 05:13:27;;;;;;;;;15.67;11.67;;;;;;;;5060443;28;47372;-75
2023/12/20 05:15:52;;;;;;;;;13.67;13.67;;;;;;;;5059114;28;45343;-76
2023/12/20 05:18:17;;;;;;;;;17.67;11.67;;;;;;;;5060531;28;45289;-76
2023/12/20 05:20:43;;;;;;;;;11.33;11.33;;;;;;;;5059008;28;47235;-76
2023/12/20 05:23:08;;;;;;;;;16.67;14.33;;;;;;;;5041588;28;47597;-76
2023/12/20 05:25:33;;;;;;;;;11.67;11.67;;;;;;;;5060164;28;45303;-75
2023/12/20 05:27:58;;;;;;;;;13.00;12.00;;;;;;;;5059003;28;45375;-76
2023/12/20 05:30:24;;;;;;;;;11.33;10.00;;;;;;;;5059943;28;45327;-76
2023/12/20 05:32:49;;;;;;;;;6.00;6.00;;;;;;;;5060176;28;46692;-75
2023/12/20 05:35:15;;;;;;;;;8.00;5.00;;;;;;;;5059020;28;45426;-76
2023/12/20 05:37:40;;;;;;;;;3.00;3.00;;;;;;;;5040723;28;45497;-75
2023/12/20 05:40:05;;;;;;;;;6.00;4.33;;;;;;;;5059292;28;45548;-76
2023/12/20 05:42:31;;;;;;;;;2.67;2.67;;;;;;;;5060012;28;46613;-76
2023/12/20 05:44:56;;;;;;;;;2.00;2.00;;;;;;;;5060188;28;45378;-76
2023/12/20 05:47:21;;;;;;;;;1.00;1.00;;;;;;;;5058872;28;45371;-75
2023/12/20 05:49:46;;;;;;;;;1.00;1.00;;;;;;;;5059907;28;45383;-75
2023/12/20 05:52:11;;;;;;;;;7.00;5.67;;;;;;;;5059295;28;46696;-75
2023/12/20 05:54:37;;;;;;;;;7.00;5.67;;;;;;;;5058947;28;45285;-76
2023/12/20 05:57:02;;;;;;;;;9.00;5.33;;;;;;;;5058965;28;45449;-75
2023/12/20 05:59:27;;;;;;;;;10.00;6.33;;;;;;;;5059576;28;45288;-76
2023/12/20 06:01:53;;;;;;;;;7.33;4.00;;;;;;;;5059757;28;46335;-76
2023/12/20 06:04:18;;;;;;;;;1.00;1.00;;;;;;;;5058202;28;45317;-75
2023/12/20 06:06:43;;;;;;;;;3.00;3.00;;;;;;;;5058947;28;45315;-76
2023/12/20 06:09:08;;;;;;;;;4.00;4.00;;;;;;;;5058653;28;45532;-76
2023/12/20 06:11:34;;;;;;;;;1.00;1.00;;;;;;;;5059261;28;46411;-76
2023/12/20 06:13:59;;;;;;;;;1.00;1.00;;;;;;;;5059831;28;45414;-76
2023/12/20 06:16:24;;;;;;;;;3.00;2.00;;;;;;;;5059367;28;45584;-76
2023/12/20 06:18:49;;;;;;;;;2.00;2.00;;;;;;;;5058941;28;45323;-76
2023/12/20 06:21:15;;;;;;;;;1.67;1.67;;;;;;;;5059686;28;46310;-76
2023/12/20 06:23:40;;;;;;;;;2.00;2.00;;;;;;;;5040870;28;45368;-76
2023/12/20 06:26:05;;;;;;;;;3.00;3.00;;;;;;;;5059573;28;45149;-76
2023/12/20 06:28:30;;;;;;;;;20.00;16.00;;;;;;;;5041224;28;46140;-75
2023/12/20 06:30:56;;;;;;;;;22.00;17.00;;;;;;;;5059023;28;45433;-76
2023/12/20 06:33:22;;;;;;;;;18.00;18.00;;;;;;;;5059390;28;45376;-76
2023/12/20 06:35:47;;;;;;;;;13.67;11.33;;;;;;;;5062859;28;45286;-75
2023/12/20 06:38:12;;;;;;;;;13.67;7.00;;;;;;;;5062662;28;45315;-75
2023/12/20 06:40:38;;;;;;;;;2.33;2.33;;;;;;;;5061519;28;47921;-76
2023/12/20 06:43:03;;;;;;;;;8.00;8.00;;;;;;;;5061156;28;45592;-76
2023/12/20 06:45:28;;;;;;;;;8.00;8.00;;;;;;;;5062241;28;45321;-75
2023/12/20 06:47:54;;;;;;;;;10.00;9.00;;;;;;;;5062843;28;45415;-76
2023/12/20 06:50:19;;;;;;;;;7.67;7.67;;;;;;;;5062643;28;46067;-76
2023/12/20 06:52:44;;;;;;;;;7.00;7.00;;;;;;;;5044296;28;45371;-76
2023/12/20 06:55:10;;;;;;;;;5.00;5.00;;;;;;;;5062465;28;45604;-76
2023/12/20 06:57:36;;;;;;;;;9.67;9.67;;;;;;;;5060043;28;45950;-75
2023/12/20 07:00:01;;;;;;;;;7.00;5.00;;;;;;;;5043244;28;47220;-75
2023/12/20 07:02:29;;;;;;;;;5.67;5.67;;;;;;;;5044210;28;45326;-76
2023/12/20 07:04:54;;;;;;;;;6.67;6.67;;;;;;;;5061294;28;45295;-77
2023/12/20 07:07:19;;;;;;;;;4.00;4.00;;;;;;;;5061140;28;45476;-75
2023/12/20 07:09:44;;;;;;;;;9.33;9.33;;;;;;;;5062343;28;46420;-77
2023/12/20 07:12:09;;;;;;;;;7.67;7.67;;;;;;;;5062584;28;45340;-76
2023/12/20 07:14:35;;;;;;;;;8.67;7.00;;;;;;;;5062590;28;45312;-75
2023/12/20 07:17:00;;;;;;;;;9.00;9.00;;;;;;;;5062210;28;45217;-76
2023/12/20 07:19:25;;;;;;;;;10.67;10.00;;;;;;;;5062081;28;46480;-75
2023/12/20 07:21:50;;;;;;;;;8.67;8.67;;;;;;;;5062287;28;45394;-78
2023/12/20 07:24:15;;;;;;;;;14.00;10.67;;;;;;;;5061797;28;45401;-75
2023/12/20 07:26:40;;;;;;;;;9.33;9.33;;;;;;;;5061805;28;45296;-75
2023/12/20 07:29:06;;;;;;;;;12.33;12.33;;;;;;;;5061351;28;45390;-76
2023/12/20 07:31:32;;;;;;;;;10.33;10.00;;;;;;;;5043900;28;45808;-75
2023/12/20 07:33:57;;;;;;;;;19.67;19.67;;;;;;;;5060666;28;45360;-74
2023/12/20 07:36:22;;;;;;;;;16.67;16.00;;;;;;;;5061000;28;45560;-75
2023/12/20 07:38:48;;;;;;;;;11.67;11.33;;;;;;;;5060761;28;46352;-75
2023/12/20 07:41:13;;;;;;;;;9.00;8.00;;;;;;;;5043343;28;45526;-74
2023/12/20 07:43:38;;;;;;;;;10.00;9.00;;;;;;;;5061862;28;45350;-75
2023/12/20 07:46:10;;;;;;;;;10.00;8.33;;;;;;;;5061766;28;45322;-74
2023/12/20 07:48:35;;;;;;;;;11.33;9.33;;;;;;;;5052024;28;45679;-74
2023/12/20 07:51:00;;;;;;;;;12.67;12.33;;;;;;;;5060613;28;45474;-75
2023/12/20 07:53:26;;;;;;;;;27.67;26.00;;;;;;;;5058958;28;45567;-75
2023/12/20 07:55:52;;;;;;;;;34.33;34.00;;;;;;;;5060408;28;45343;-75
2023/12/20 07:58:19;;;;;;;;;30.67;29.00;;;;;;;;5059828;28;46453;-75
2023/12/20 08:00:45;;;;;;;;;22.33;22.33;;;;;;;;5058410;28;45629;-75
2023/12/20 08:03:10;;;;;;;;;16.00;15.00;;;;;;;;5060325;28;45519;-75
2023/12/20 08:05:35;;;;;;;;;15.67;15.00;;;;;;;;5060511;28;45486;-75
2023/12/20 08:08:00;;;;;;;;;15.67;15.67;;;;;;;;5059927;28;45344;-74
2023/12/20 08:10:27;;;;;;;;;14.67;14.67;;;;;;;;5059274;28;45841;-75
2023/12/20 08:12:52;;;;;;;;;13.00;10.67;;;;;;;;5042677;28;45333;-75
2023/12/20 08:15:17;;;;;;;;;11.33;10.00;;;;;;;;5060592;28;45316;-75
2023/12/20 08:17:42;;;;;;;;;10.00;7.33;;;;;;;;5058474;28;47287;-75
2023/12/20 08:20:07;;;;;;;;;14.00;10.00;;;;;;;;5042176;28;45287;-76
2023/12/20 08:22:32;;;;;;;;;8.67;8.67;;;;;;;;5060588;28;45239;-76
2023/12/20 08:24:58;;;;;;;;;11.00;9.00;;;;;;;;5060228;28;45292;-75
2023/12/20 08:27:23;;;;;;;;;9.00;8.00;;;;;;;;5059778;28;46255;-74
2023/12/20 08:29:49;;;;;;;;;11.67;10.67;;;;;;;;5060227;28;45268;-75
2023/12/20 08:32:15;;;;;;;;;12.33;9.33;;;;;;;;5041791;28;45380;-75
2023/12/20 08:34:40;;;;;;;;;11.00;10.67;;;;;;;;5059855;28;45350;-76
2023/12/20 08:37:05;;;;;;;;;14.00;11.67;;;;;;;;5060254;28;45359;-76
2023/12/20 08:39:33;;;;;;;;;9.67;9.67;;;;;;;;5059571;28;45284;-75
2023/12/20 08:45:03;;;;;;;;;9.67;8.67;;;;;;;;5059680;28;45501;-76
2023/12/20 08:47:45;;;;;;;;;10.67;10.67;;;;;;;;5038660;28;46336;-75
2023/12/20 08:50:58;;;;;;;;;;;;;;;;;;;;;
2023/12/20 08:53:38;;;;;;;;;9.00;9.00;;;;;;;;5058471;28;68804;-75
2023/12/20 08:56:04;;;;;;;;;10.67;10.67;;;;;;;;5040616;28;47252;-76
2023/12/20 08:58:33;;;;;;;;;10.00;8.33;;;;;;;;5040160;28;46812;-76
2023/12/20 09:00:58;;;;;;;;;9.67;9.00;;;;;;;;5059868;28;45249;-76
2023/12/20 09:03:55;;;;;;;;;11.00;11.00;;;;;;;;5059458;28;45354;-76
2023/12/20 09:06:20;;;;;;;;;17.00;17.00;;;;;;;;5040915;28;46215;-75
2023/12/20 09:09:02;;;;;;;;;18.67;18.33;;;;;;;;5040271;28;46418;-76
2023/12/20 09:11:30;;;;;;;;;11.67;11.67;;;;;;;;5058245;28;45472;-76
2023/12/20 09:14:47;;;;;;;;;;;;;;;;;;;;;
2023/12/20 09:18:01;;;;;;;;;17.00;15.00;;;;;;;;5057792;28;75384;-75
2023/12/20 09:20:24;;;;;;;;;13.67;12.00;;;;;;;;5057984;28;46695;-75
2023/12/20 09:22:49;;;;;;;;;16.33;14.33;;;;;;;;5059314;28;45495;-75
2023/12/20 09:25:15;;;;;;;;;19.33;18.67;;;;;;;;5059397;28;45329;-75
2023/12/20 09:30:54;;;;;;;;;13.67;11.67;;;;;;;;5020965;28;45617;-75
2023/12/20 09:33:19;;;;;;;;;13.00;13.00;;;;;;;;5057441;28;45231;-75
2023/12/20 09:35:49;;;;;;;;;11.67;10.67;;;;;;;;5059041;28;45358;-75
2023/12/20 09:38:17;;;;;;;;;11.67;11.00;;;;;;;;5057265;28;47046;-77
2023/12/20 09:40:52;;;;;;;;;9.67;9.67;;;;;;;;5056939;28;47631;-76
2023/12/20 09:43:21;;;;;;;;;12.00;11.00;;;;;;;;5055876;28;45296;-75
2023/12/20 09:45:47;;;;;;;;;10.33;10.33;;;;;;;;5079784;28;45205;-76
2023/12/20 09:48:45;;;;;;;;;;;;;;;;;;;;;
2023/12/20 09:51:17;;;;;;;;;11.00;10.33;;;;;;;;5052428;28;75318;-76
2023/12/20 09:53:52;;;;;;;;;10.00;10.00;;;;;;;;5040188;28;45498;-75
2023/12/20 09:57:01;;;;;;;;;11.67;9.00;;;;;;;;5015740;28;45677;-75
2023/12/20 09:59:32;;;;;;;;;9.33;9.33;;;;;;;;4938201;28;45874;-75
2023/12/20 10:02:01;;;;;;;;;12.00;11.00;;;;;;;;4983779;28;45803;-75
2023/12/20 10:04:26;;;;;;;;;12.00;10.33;;;;;;;;5036290;28;45527;-75
2023/12/20 10:06:52;;;;;;;;;12.33;10.00;;;;;;;;5019079;28;45437;-75
2023/12/20 10:09:17;;;;;;;;;12.33;11.00;;;;;;;;5035168;28;45313;-78
2023/12/20 10:11:42;;;;;;;;;10.00;8.00;;;;;;;;5036038;28;45542;-76
2023/12/20 10:14:07;;;;;;;;;6.33;6.33;;;;;;;;5037060;28;45375;-76
2023/12/20 10:16:33;;;;;;;;;22.00;19.67;;;;;;;;5036700;28;45380;-76
2023/12/20 10:18:59;;;;;;;;;34.33;29.33;;;;;;;;5036690;28;45533;-75
2023/12/20 10:21:43;;;;;;;;;19.00;15.67;;;;;;;;5036110;28;45397;-75
2023/12/20 10:24:08;;;;;;;;;18.00;16.00;;;;;;;;5018816;28;45360;-76
2023/12/20 10:26:33;;;;;;;;;26.00;25.00;;;;;;;;5040973;28;46073;-75
2023/12/20 10:29:24;;;;;;;;;23.00;22.67;;;;;;;;5061373;28;45295;-76
2023/12/20 10:31:49;;;;;;;;;15.33;14.00;;;;;;;;5009529;28;47074;-76
2023/12/20 10:34:48;;;;;;;;;15.00;14.00;;;;;;;;5054122;28;45836;-75
2023/12/20 10:37:39;;;;;;;;;17.67;15.00;;;;;;;;5056715;28;45356;-76
2023/12/20 10:46:39;;;;;;;;;15.00;12.00;;;;;;;;5007900;28;45478;-76
2023/12/20 10:52:25;;;;;;;;;15.00;14.00;;;;;;;;5057642;28;45691;-76
2023/12/20 10:55:22;;;;;;;;;10.00;10.00;;;;;;;;5057780;28;46050;-75
2023/12/20 10:57:50;;;;;;;;;19.00;18.00;;;;;;;;5037856;28;45398;-77
2023/12/20 11:00:17;;;;;;;;;16.00;14.00;;;;;;;;5039781;28;45397;-76
2023/12/20 11:02:43;;;;;;;;;24.67;22.00;;;;;;;;5038946;28;45438;-75
2023/12/20 11:05:14;;;;;;;;;20.00;17.33;;;;;;;;5038868;28;46307;-75
2023/12/20 11:07:43;;;;;;;;;20.00;18.33;;;;;;;;5040658;28;45249;-79
2023/12/20 11:10:41;;;;;;;;;13.67;13.33;;;;;;;;5021522;28;45358;-77
2023/12/20 11:13:09;;;;;;;;;11.67;7.67;;;;;;;;4993529;28;47359;-76
2023/12/20 11:15:36;;;;;;;;;16.00;14.00;;;;;;;;5037103;28;47476;-76
2023/12/20 11:18:01;;;;;;;;;7.00;6.67;;;;;;;;5038750;28;45328;-79
2023/12/20 11:20:40;;;;;;;;;27.00;24.00;;;;;;;;5040040;28;45355;-75
2023/12/20 11:23:06;;;;;;;;;16.33;12.00;;;;;;;;5041777;28;45303;-76
2023/12/20 11:25:47;;;;;;;;;6.00;5.00;;;;;;;;5023592;28;47669;-77
2023/12/20 11:28:13;;;;;;;;;7.00;6.00;;;;;;;;5041639;28;45359;-75
2023/12/20 11:30:42;;;;;;;;;12.33;9.33;;;;;;;;5041324;28;45414;-77
2023/12/20 11:33:08;;;;;;;;;11.00;9.00;;;;;;;;5041021;28;45377;-77
2023/12/20 11:35:34;;;;;;;;;4.00;3.00;;;;;;;;5041663;28;46217;-77
2023/12/20 11:38:00;;;;;;;;;11.00;9.00;;;;;;;;5023488;28;45664;-77
2023/12/20 11:40:26;;;;;;;;;7.00;7.00;;;;;;;;5041917;28;45285;-77
2023/12/20 11:42:52;;;;;;;;;5.33;4.33;;;;;;;;5043575;28;45282;-76
2023/12/20 11:45:21;;;;;;;;;12.00;10.67;;;;;;;;5027415;28;45933;-78
2023/12/20 11:47:46;;;;;;;;;9.33;7.67;;;;;;;;5008818;28;45760;-77
2023/12/20 11:50:12;;;;;;;;;9.33;9.33;;;;;;;;5023616;28;45553;-78
2023/12/20 11:52:37;;;;;;;;;10.67;9.33;;;;;;;;5043253;28;45554;-78
2023/12/20 11:55:06;;;;;;;;;11.00;11.00;;;;;;;;5043984;28;47201;-79
2023/12/20 11:57:32;;;;;;;;;7.00;5.67;;;;;;;;5045286;28;45361;-79
2023/12/20 11:59:58;;;;;;;;;8.67;7.00;;;;;;;;5061603;28;45411;-77
2023/12/20 12:02:23;;;;;;;;;8.00;8.00;;;;;;;;5042744;28;46947;-78
2023/12/20 12:04:50;;;;;;;;;9.67;6.67;;;;;;;;5042629;28;47526;-76
2023/12/20 12:07:15;;;;;;;;;8.67;7.33;;;;;;;;5060591;28;45280;-77
2023/12/20 12:09:40;;;;;;;;;7.00;6.33;;;;;;;;5060176;28;45584;-76
2023/12/20 12:12:06;;;;;;;;;4.67;4.67;;;;;;;;5074194;28;45350;-76
2023/12/20 12:14:31;;;;;;;;;5.00;5.00;;;;;;;;5079444;28;46189;-77
2023/12/20 12:16:57;;;;;;;;;15.33;12.00;;;;;;;;5041723;28;45388;-76
2023/12/20 12:19:23;;;;;;;;;8.67;8.00;;;;;;;;5049105;28;45282;-75
2023/12/20 12:21:48;;;;;;;;;8.00;5.00;;;;;;;;5059693;28;45294;-77
2023/12/20 12:24:13;;;;;;;;;8.67;8.00;;;;;;;;5060034;28;46290;-76
2023/12/20 12:26:38;;;;;;;;;5.00;5.00;;;;;;;;5042055;28;45250;-77
2023/12/20 12:29:06;;;;;;;;;6.00;4.67;;;;;;;;5061250;28;45585;-76
2023/12/20 12:31:32;;;;;;;;;8.00;6.33;;;;;;;;5060109;28;45351;-75
2023/12/20 12:33:57;;;;;;;;;4.00;3.00;;;;;;;;5060954;28;45383;-77
2023/12/20 12:39:41;;;;;;;;;5.33;5.33;;;;;;;;5018419;28;45335;-77
2023/12/20 12:49:30;;;;;;;;;;;;;;;;;;;;;
2023/12/20 12:52:02;;;;;;;;;3.67;3.00;;;;;;;;5062553;28;45395;-77
2023/12/20 12:54:28;;;;;;;;;4.67;4.67;;;;;;;;5062245;28;45341;-76
2023/12/20 12:56:53;;;;;;;;;7.33;7.33;;;;;;;;5063991;28;46216;-77
2023/12/20 12:59:18;;;;;;;;;7.67;7.67;;;;;;;;5023337;28;45227;-77
2023/12/20 13:01:43;;;;;;;;;9.00;6.67;;;;;;;;5041435;28;45194;-78
2023/12/20 13:04:10;;;;;;;;;14.00;12.67;;;;;;;;5040787;28;45493;-74
2023/12/20 13:06:36;;;;;;;;;7.67;7.67;;;;;;;;5040234;28;45283;-75
2023/12/20 13:09:02;;;;;;;;;6.00;5.67;;;;;;;;5040745;28;45203;-76
2023/12/20 13:11:27;;;;;;;;;6.00;3.67;;;;;;;;5037722;28;45959;-76
2023/12/20 13:13:52;;;;;;;;;3.00;3.00;;;;;;;;5040493;28;45990;-78
2023/12/20 13:16:17;;;;;;;;;5.00;4.67;;;;;;;;5061929;28;46167;-78
2023/12/20 13:24:48;;;;;;;;;7.00;5.33;;;;;;;;5064642;28;45217;-77
2023/12/20 13:28:18;;;;;;;;;;;;;;;;;;;;;
2023/12/20 13:31:06;;;;;;;;;5.33;5.33;;;;;;;;5029792;28;45401;-77
2023/12/20 13:36:58;;;;;;;;;7.00;5.33;;;;;;;;5041472;28;45199;-77
2023/12/20 13:42:27;;;;;;;;;6.67;5.67;;;;;;;;5058625;28;45494;-78
2023/12/20 13:48:11;;;;;;;;;8.00;7.00;;;;;;;;5061734;28;45375;-78
2023/12/20 13:51:02;;;;;;;;;11.33;8.67;;;;;;;;4941574;28;45438;-78
2023/12/20 14:00:16;;;;;;;;;6.00;6.00;;;;;;;;5017398;28;45432;-77
2023/12/20 14:02:42;;;;;;;;;6.67;6.67;;;;;;;;5017570;28;46243;-78
2023/12/20 14:05:08;;;;;;;;;4.67;4.67;;;;;;;;5017179;28;45404;-78
2023/12/20 14:07:33;;;;;;;;;7.00;5.00;;;;;;;;5018024;28;45494;-79
2023/12/20 14:09:59;;;;;;;;;4.00;4.00;;;;;;;;5016887;28;45389;-78
2023/12/20 14:12:24;;;;;;;;;6.33;6.33;;;;;;;;5017258;28;45358;-78
2023/12/20 14:14:49;;;;;;;;;8.00;7.00;;;;;;;;5024185;28;45369;-79
2023/12/20 14:17:14;;;;;;;;;4.00;3.67;;;;;;;;5058132;28;46437;-79
2023/12/20 14:19:40;;;;;;;;;4.67;4.67;;;;;;;;5064071;28;45325;-78
2023/12/20 14:22:06;;;;;;;;;4.00;4.00;;;;;;;;5054183;28;46657;-78
2023/12/20 14:24:32;;;;;;;;;4.67;3.67;;;;;;;;5057500;28;45553;-79
2023/12/20 14:26:58;;;;;;;;;6.67;6.67;;;;;;;;5042342;28;45389;-79
2023/12/20 14:29:23;;;;;;;;;6.33;5.33;;;;;;;;5058776;28;45348;-78
2023/12/20 14:31:49;;;;;;;;;5.33;5.33;;;;;;;;5059577;28;46436;-78
2023/12/20 14:34:14;;;;;;;;;5.00;5.00;;;;;;;;5060813;28;45809;-78
2023/12/20 14:36:40;;;;;;;;;7.00;6.00;;;;;;;;5060410;28;45499;-78
2023/12/20 14:39:05;;;;;;;;;6.00;6.00;;;;;;;;5059625;28;45439;-78
2023/12/20 14:41:31;;;;;;;;;6.00;5.67;;;;;;;;5058711;28;45922;-78
2023/12/20 14:43:56;;;;;;;;;6.67;6.00;;;;;;;;5061213;28;45746;-78
2023/12/20 14:46:21;;;;;;;;;4.00;4.00;;;;;;;;5061660;28;45472;-80
2023/12/20 14:48:48;;;;;;;;;5.33;5.33;;;;;;;;5060780;28;45542;-78
2023/12/20 14:51:13;;;;;;;;;4.67;4.67;;;;;;;;5040001;28;47642;-79
2023/12/20 14:53:38;;;;;;;;;8.67;7.67;;;;;;;;5057634;28;45896;-78
2023/12/20 14:56:04;;;;;;;;;5.00;4.00;;;;;;;;5042261;28;45319;-79
2023/12/20 14:58:29;;;;;;;;;5.00;5.00;;;;;;;;5062177;28;45435;-78
2023/12/20 15:00:55;;;;;;;;;4.33;3.00;;;;;;;;5062505;28;45149;-79
2023/12/20 15:03:21;;;;;;;;;5.67;4.67;;;;;;;;5061856;28;45304;-79
2023/12/20 15:05:47;;;;;;;;;5.67;4.33;;;;;;;;5062326;28;45358;-79
2023/12/20 15:08:12;;;;;;;;;4.67;4.67;;;;;;;;5063320;28;45452;-79
2023/12/20 15:10:38;;;;;;;;;3.00;3.00;;;;;;;;5061243;28;48271;-78
2023/12/20 15:13:03;;;;;;;;;5.00;3.00;;;;;;;;5060732;28;45620;-79
2023/12/20 15:15:29;;;;;;;;;1.00;1.00;;;;;;;;5059353;28;45349;-79
2023/12/20 15:17:54;;;;;;;;;2.67;2.67;;;;;;;;5060129;28;46230;-81
2023/12/20 15:20:20;;;;;;;;;4.67;2.33;;;;;;;;5043064;28;47243;-79
2023/12/20 15:22:45;;;;;;;;;3.00;3.00;;;;;;;;5060724;28;45289;-79
2023/12/20 15:25:11;;;;;;;;;6.67;5.33;;;;;;;;5042673;28;45395;-78
2023/12/20 15:27:38;;;;;;;;;7.00;7.00;;;;;;;;5061351;28;45390;-79
2023/12/20 15:30:03;;;;;;;;;8.00;8.00;;;;;;;;5060437;28;45570;-80